sensor_id;sensor_type;location;lat;lon;timestamp;P1;durP1;ratioP1;P2;durP2;ratioP2
20593;SDS011;10455;48.732;10.266;2022-10-16T00:01:50;5.15;;;3.38;;
20593;SDS011;10455;48.732;10.266;2022-10-16T00:06:52;4.18;;;3.38;;
20593;SDS011;10455;48.732;10.266;2022-10-16T00:11:56;6.60;;;3.97;;
20593;SDS011;10455;48.732;10.266;2022-10-16T00:16:58;7.78;;;4.13;;
20593;SDS011;10455;48.732;10.266;2022-10-16T00:22:00;5.45;;;4.10;;
20593;SDS011;10455;48.732;10.266;2022-10-16T00:27:03;5.28;;;3.90;;
20593;SDS011;10455;48.732;10.266;2022-10-16T00:32:05;7.32;;;4.43;;
20593;SDS011;10455;48.732;10.266;2022-10-16T00:37:07;5.97;;;4.60;;
20593;SDS011;10455;48.732;10.266;2022-10-16T00:42:12;7.93;;;5.93;;
20593;SDS011;10455;48.732;10.266;2022-10-16T00:47:18;8.27;;;6.70;;
20593;SDS011;10455;48.732;10.266;2022-10-16T00:52:23;7.32;;;5.65;;
20593;SDS011;10455;48.732;10.266;2022-10-16T00:57:27;7.32;;;6.40;;
20593;SDS011;10455;48.732;10.266;2022-10-16T01:02:29;9.52;;;6.55;;
20593;SDS011;10455;48.732;10.266;2022-10-16T01:07:34;9.50;;;5.82;;
20593;SDS011;10455;48.732;10.266;2022-10-16T01:12:45;7.28;;;6.55;;
20593;SDS011;10455;48.732;10.266;2022-10-16T01:17:51;9.85;;;7.22;;
20593;SDS011;10455;48.732;10.266;2022-10-16T01:23:01;8.68;;;6.82;;
20593;SDS011;10455;48.732;10.266;2022-10-16T01:28:12;14.90;;;7.85;;
20593;SDS011;10455;48.732;10.266;2022-10-16T01:33:18;9.88;;;8.32;;
20593;SDS011;10455;48.732;10.266;2022-10-16T01:38:23;10.32;;;7.57;;
20593;SDS011;10455;48.732;10.266;2022-10-16T01:43:33;9.80;;;7.97;;
20593;SDS011;10455;48.732;10.266;2022-10-16T01:48:40;8.85;;;8.10;;
20593;SDS011;10455;48.732;10.266;2022-10-16T01:53:43;8.45;;;7.70;;
20593;SDS011;10455;48.732;10.266;2022-10-16T01:58:52;10.15;;;8.65;;
20593;SDS011;10455;48.732;10.266;2022-10-16T02:03:57;9.63;;;8.50;;
20593;SDS011;10455;48.732;10.266;2022-10-16T02:09:03;12.63;;;9.37;;
20593;SDS011;10455;48.732;10.266;2022-10-16T02:14:06;12.10;;;10.80;;
20593;SDS011;10455;48.732;10.266;2022-10-16T02:19:09;15.23;;;11.03;;
20593;SDS011;10455;48.732;10.266;2022-10-16T02:24:13;15.70;;;14.10;;
20593;SDS011;10455;48.732;10.266;2022-10-16T02:29:25;22.37;;;19.17;;
20593;SDS011;10455;48.732;10.266;2022-10-16T02:34:28;19.85;;;17.50;;
20593;SDS011;10455;48.732;10.266;2022-10-16T02:39:33;13.75;;;12.43;;
20593;SDS011;10455;48.732;10.266;2022-10-16T02:44:37;13.18;;;10.27;;
20593;SDS011;10455;48.732;10.266;2022-10-16T02:49:39;10.45;;;9.38;;
20593;SDS011;10455;48.732;10.266;2022-10-16T02:54:41;9.52;;;8.55;;
20593;SDS011;10455;48.732;10.266;2022-10-16T02:59:45;19.60;;;9.27;;
20593;SDS011;10455;48.732;10.266;2022-10-16T03:04:47;9.38;;;8.40;;
20593;SDS011;10455;48.732;10.266;2022-10-16T03:09:49;13.10;;;9.55;;
20593;SDS011;10455;48.732;10.266;2022-10-16T03:14:52;14.00;;;10.93;;
20593;SDS011;10455;48.732;10.266;2022-10-16T03:19:54;13.07;;;11.52;;
20593;SDS011;10455;48.732;10.266;2022-10-16T03:24:56;14.15;;;11.20;;
20593;SDS011;10455;48.732;10.266;2022-10-16T03:30:00;14.82;;;13.20;;
20593;SDS011;10455;48.732;10.266;2022-10-16T03:35:02;20.50;;;16.60;;
20593;SDS011;10455;48.732;10.266;2022-10-16T03:40:05;21.80;;;17.50;;
20593;SDS011;10455;48.732;10.266;2022-10-16T03:45:09;19.05;;;14.63;;
20593;SDS011;10455;48.732;10.266;2022-10-16T03:50:12;11.70;;;10.60;;
20593;SDS011;10455;48.732;10.266;2022-10-16T03:55:14;14.13;;;10.88;;
20593;SDS011;10455;48.732;10.266;2022-10-16T04:00:18;10.57;;;9.60;;
20593;SDS011;10455;48.732;10.266;2022-10-16T04:05:20;12.00;;;9.32;;
20593;SDS011;10455;48.732;10.266;2022-10-16T04:10:22;10.02;;;8.57;;
20593;SDS011;10455;48.732;10.266;2022-10-16T04:15:26;10.63;;;9.52;;
20593;SDS011;10455;48.732;10.266;2022-10-16T04:20:28;13.38;;;9.85;;
20593;SDS011;10455;48.732;10.266;2022-10-16T04:25:31;15.60;;;11.30;;
20593;SDS011;10455;48.732;10.266;2022-10-16T04:30:34;10.80;;;9.55;;
20593;SDS011;10455;48.732;10.266;2022-10-16T04:35:39;14.75;;;13.20;;
20593;SDS011;10455;48.732;10.266;2022-10-16T04:40:41;11.88;;;10.70;;
20593;SDS011;10455;48.732;10.266;2022-10-16T04:45:45;15.90;;;12.53;;
20593;SDS011;10455;48.732;10.266;2022-10-16T04:50:47;15.68;;;12.75;;
20593;SDS011;10455;48.732;10.266;2022-10-16T04:55:49;15.07;;;11.97;;
20593;SDS011;10455;48.732;10.266;2022-10-16T05:00:53;14.70;;;11.47;;
20593;SDS011;10455;48.732;10.266;2022-10-16T05:05:55;19.10;;;13.57;;
20593;SDS011;10455;48.732;10.266;2022-10-16T05:10:57;19.50;;;11.97;;
20593;SDS011;10455;48.732;10.266;2022-10-16T05:16:01;18.43;;;11.87;;
20593;SDS011;10455;48.732;10.266;2022-10-16T05:21:03;15.43;;;11.67;;
20593;SDS011;10455;48.732;10.266;2022-10-16T05:26:06;13.80;;;12.20;;
20593;SDS011;10455;48.732;10.266;2022-10-16T05:31:09;13.07;;;11.70;;
20593;SDS011;10455;48.732;10.266;2022-10-16T05:36:11;12.33;;;11.03;;
20593;SDS011;10455;48.732;10.266;2022-10-16T05:41:13;13.70;;;11.03;;
20593;SDS011;10455;48.732;10.266;2022-10-16T05:46:22;12.73;;;11.43;;
20593;SDS011;10455;48.732;10.266;2022-10-16T05:51:24;11.27;;;10.30;;
20593;SDS011;10455;48.732;10.266;2022-10-16T05:56:26;14.13;;;11.30;;
20593;SDS011;10455;48.732;10.266;2022-10-16T06:01:30;12.30;;;11.10;;
20593;SDS011;10455;48.732;10.266;2022-10-16T06:06:32;13.37;;;12.00;;
20593;SDS011;10455;48.732;10.266;2022-10-16T06:11:36;13.50;;;12.10;;
20593;SDS011;10455;48.732;10.266;2022-10-16T06:16:40;13.25;;;12.02;;
20593;SDS011;10455;48.732;10.266;2022-10-16T06:21:42;12.63;;;11.23;;
20593;SDS011;10455;48.732;10.266;2022-10-16T06:26:44;13.15;;;11.40;;
20593;SDS011;10455;48.732;10.266;2022-10-16T06:31:47;12.85;;;10.05;;
20593;SDS011;10455;48.732;10.266;2022-10-16T06:36:50;9.65;;;8.82;;
20593;SDS011;10455;48.732;10.266;2022-10-16T06:41:52;9.82;;;7.50;;
20593;SDS011;10455;48.732;10.266;2022-10-16T06:46:55;10.63;;;8.35;;
20593;SDS011;10455;48.732;10.266;2022-10-16T06:51:57;10.52;;;8.23;;
20593;SDS011;10455;48.732;10.266;2022-10-16T06:57:00;8.25;;;7.53;;
20593;SDS011;10455;48.732;10.266;2022-10-16T07:02:03;9.27;;;8.20;;
20593;SDS011;10455;48.732;10.266;2022-10-16T07:07:07;10.40;;;7.68;;
20593;SDS011;10455;48.732;10.266;2022-10-16T07:12:09;10.02;;;6.40;;
20593;SDS011;10455;48.732;10.266;2022-10-16T07:17:12;5.65;;;4.40;;
20593;SDS011;10455;48.732;10.266;2022-10-16T07:22:14;4.28;;;3.38;;
20593;SDS011;10455;48.732;10.266;2022-10-16T07:27:17;5.72;;;3.17;;
20593;SDS011;10455;48.732;10.266;2022-10-16T07:32:21;3.22;;;2.80;;
20593;SDS011;10455;48.732;10.266;2022-10-16T07:37:23;3.80;;;3.20;;
20593;SDS011;10455;48.732;10.266;2022-10-16T07:42:26;4.55;;;3.15;;
20593;SDS011;10455;48.732;10.266;2022-10-16T07:47:31;3.78;;;3.38;;
20593;SDS011;10455;48.732;10.266;2022-10-16T07:52:33;5.60;;;3.33;;
20593;SDS011;10455;48.732;10.266;2022-10-16T07:57:35;5.10;;;3.17;;
20593;SDS011;10455;48.732;10.266;2022-10-16T08:02:39;3.85;;;3.13;;
20593;SDS011;10455;48.732;10.266;2022-10-16T08:07:41;7.80;;;3.50;;
20593;SDS011;10455;48.732;10.266;2022-10-16T08:12:43;6.75;;;3.60;;
20593;SDS011;10455;48.732;10.266;2022-10-16T08:17:55;3.50;;;3.20;;
20593;SDS011;10455;48.732;10.266;2022-10-16T08:23:01;5.97;;;3.42;;
20593;SDS011;10455;48.732;10.266;2022-10-16T08:28:03;5.90;;;3.22;;
20593;SDS011;10455;48.732;10.266;2022-10-16T08:33:07;4.43;;;3.13;;
20593;SDS011;10455;48.732;10.266;2022-10-16T08:38:10;3.72;;;2.70;;
20593;SDS011;10455;48.732;10.266;2022-10-16T08:43:19;4.70;;;2.95;;
20593;SDS011;10455;48.732;10.266;2022-10-16T08:48:35;3.13;;;2.83;;
20593;SDS011;10455;48.732;10.266;2022-10-16T08:53:45;4.47;;;2.60;;
20593;SDS011;10455;48.732;10.266;2022-10-16T08:58:52;5.15;;;2.60;;
20593;SDS011;10455;48.732;10.266;2022-10-16T09:04:01;3.83;;;2.80;;
20593;SDS011;10455;48.732;10.266;2022-10-16T09:09:29;3.42;;;2.85;;
20593;SDS011;10455;48.732;10.266;2022-10-16T09:14:45;4.30;;;2.63;;
20593;SDS011;10455;48.732;10.266;2022-10-16T09:20:07;5.28;;;2.45;;
20593;SDS011;10455;48.732;10.266;2022-10-16T09:25:26;3.15;;;2.45;;
20593;SDS011;10455;48.732;10.266;2022-10-16T09:30:29;5.70;;;2.90;;
20593;SDS011;10455;48.732;10.266;2022-10-16T09:35:35;2.95;;;2.75;;
20593;SDS011;10455;48.732;10.266;2022-10-16T09:40:38;4.30;;;2.72;;
20593;SDS011;10455;48.732;10.266;2022-10-16T09:45:43;4.05;;;3.15;;
20593;SDS011;10455;48.732;10.266;2022-10-16T09:51:00;3.35;;;2.95;;
20593;SDS011;10455;48.732;10.266;2022-10-16T09:56:04;4.40;;;3.00;;
20593;SDS011;10455;48.732;10.266;2022-10-16T10:01:11;4.28;;;3.35;;
20593;SDS011;10455;48.732;10.266;2022-10-16T10:06:21;3.08;;;2.55;;
20593;SDS011;10455;48.732;10.266;2022-10-16T10:11:41;3.22;;;2.45;;
20593;SDS011;10455;48.732;10.266;2022-10-16T10:16:46;4.53;;;1.95;;
20593;SDS011;10455;48.732;10.266;2022-10-16T10:21:50;2.30;;;2.10;;
20593;SDS011;10455;48.732;10.266;2022-10-16T10:26:54;2.47;;;2.15;;
20593;SDS011;10455;48.732;10.266;2022-10-16T10:32:08;2.33;;;1.58;;
20593;SDS011;10455;48.732;10.266;2022-10-16T10:37:26;4.53;;;2.13;;
20593;SDS011;10455;48.732;10.266;2022-10-16T10:42:37;5.82;;;2.40;;
20593;SDS011;10455;48.732;10.266;2022-10-16T10:47:51;2.65;;;2.15;;
20593;SDS011;10455;48.732;10.266;2022-10-16T10:53:09;4.47;;;2.15;;
20593;SDS011;10455;48.732;10.266;2022-10-16T11:04:08;3.30;;;2.20;;
20593;SDS011;10455;48.732;10.266;2022-10-16T11:09:32;3.47;;;2.25;;
20593;SDS011;10455;48.732;10.266;2022-10-16T11:14:39;4.68;;;1.95;;
20593;SDS011;10455;48.732;10.266;2022-10-16T11:19:46;2.45;;;2.10;;
20593;SDS011;10455;48.732;10.266;2022-10-16T11:24:55;2.42;;;2.08;;
20593;SDS011;10455;48.732;10.266;2022-10-16T11:30:04;2.67;;;1.80;;
20593;SDS011;10455;48.732;10.266;2022-10-16T11:35:15;5.32;;;2.15;;
20593;SDS011;10455;48.732;10.266;2022-10-16T11:40:26;2.92;;;1.83;;
20593;SDS011;10455;48.732;10.266;2022-10-16T11:45:32;3.50;;;1.80;;
20593;SDS011;10455;48.732;10.266;2022-10-16T11:50:39;3.88;;;1.75;;
20593;SDS011;10455;48.732;10.266;2022-10-16T11:55:46;2.92;;;2.10;;
20593;SDS011;10455;48.732;10.266;2022-10-16T12:00:51;4.60;;;1.70;;
20593;SDS011;10455;48.732;10.266;2022-10-16T12:06:04;1.70;;;1.60;;
20593;SDS011;10455;48.732;10.266;2022-10-16T12:11:32;2.13;;;1.63;;
20593;SDS011;10455;48.732;10.266;2022-10-16T12:16:39;2.55;;;1.70;;
20593;SDS011;10455;48.732;10.266;2022-10-16T12:21:54;5.57;;;1.83;;
20593;SDS011;10455;48.732;10.266;2022-10-16T12:26:59;3.65;;;1.90;;
20593;SDS011;10455;48.732;10.266;2022-10-16T12:32:02;5.25;;;2.08;;
20593;SDS011;10455;48.732;10.266;2022-10-16T12:37:11;2.45;;;1.60;;
20593;SDS011;10455;48.732;10.266;2022-10-16T12:42:21;1.80;;;1.70;;
20593;SDS011;10455;48.732;10.266;2022-10-16T12:47:36;2.35;;;1.70;;
20593;SDS011;10455;48.732;10.266;2022-10-16T12:52:47;2.28;;;1.70;;
20593;SDS011;10455;48.732;10.266;2022-10-16T12:57:57;4.90;;;1.80;;
20593;SDS011;10455;48.732;10.266;2022-10-16T13:03:19;3.60;;;1.90;;
20593;SDS011;10455;48.732;10.266;2022-10-16T13:08:45;3.60;;;1.83;;
20593;SDS011;10455;48.732;10.266;2022-10-16T13:14:14;2.47;;;1.83;;
20593;SDS011;10455;48.732;10.266;2022-10-16T13:19:39;2.75;;;1.98;;
20593;SDS011;10455;48.732;10.266;2022-10-16T13:24:49;4.80;;;2.00;;
20593;SDS011;10455;48.732;10.266;2022-10-16T13:30:07;2.25;;;1.80;;
20593;SDS011;10455;48.732;10.266;2022-10-16T13:35:20;2.95;;;1.50;;
20593;SDS011;10455;48.732;10.266;2022-10-16T13:40:24;3.40;;;1.80;;
20593;SDS011;10455;48.732;10.266;2022-10-16T13:45:27;2.60;;;1.52;;
20593;SDS011;10455;48.732;10.266;2022-10-16T13:50:30;1.88;;;1.52;;
20593;SDS011;10455;48.732;10.266;2022-10-16T13:55:32;2.80;;;1.50;;
20593;SDS011;10455;48.732;10.266;2022-10-16T14:00:36;2.35;;;1.67;;
20593;SDS011;10455;48.732;10.266;2022-10-16T14:05:40;3.10;;;1.77;;
20593;SDS011;10455;48.732;10.266;2022-10-16T14:10:47;1.88;;;1.77;;
20593;SDS011;10455;48.732;10.266;2022-10-16T14:15:52;3.83;;;1.65;;
20593;SDS011;10455;48.732;10.266;2022-10-16T14:21:02;1.92;;;1.50;;
20593;SDS011;10455;48.732;10.266;2022-10-16T14:26:13;2.45;;;1.42;;
20593;SDS011;10455;48.732;10.266;2022-10-16T14:31:24;3.20;;;1.50;;
20593;SDS011;10455;48.732;10.266;2022-10-16T14:36:28;3.35;;;1.98;;
20593;SDS011;10455;48.732;10.266;2022-10-16T14:41:32;1.95;;;1.75;;
20593;SDS011;10455;48.732;10.266;2022-10-16T14:46:46;5.45;;;1.58;;
20593;SDS011;10455;48.732;10.266;2022-10-16T14:51:48;3.45;;;1.58;;
20593;SDS011;10455;48.732;10.266;2022-10-16T14:56:52;1.98;;;1.55;;
20593;SDS011;10455;48.732;10.266;2022-10-16T15:01:57;4.13;;;1.77;;
20593;SDS011;10455;48.732;10.266;2022-10-16T15:06:59;2.65;;;2.00;;
20593;SDS011;10455;48.732;10.266;2022-10-16T15:12:01;3.78;;;1.88;;
20593;SDS011;10455;48.732;10.266;2022-10-16T15:17:05;3.67;;;1.95;;
20593;SDS011;10455;48.732;10.266;2022-10-16T15:22:09;7.65;;;2.58;;
20593;SDS011;10455;48.732;10.266;2022-10-16T15:27:12;4.05;;;2.03;;
20593;SDS011;10455;48.732;10.266;2022-10-16T15:32:15;2.78;;;1.98;;
20593;SDS011;10455;48.732;10.266;2022-10-16T15:37:17;5.20;;;2.00;;
20593;SDS011;10455;48.732;10.266;2022-10-16T15:42:19;3.83;;;2.10;;
20593;SDS011;10455;48.732;10.266;2022-10-16T15:47:23;6.88;;;2.30;;
20593;SDS011;10455;48.732;10.266;2022-10-16T15:52:25;5.72;;;2.50;;
20593;SDS011;10455;48.732;10.266;2022-10-16T15:57:28;4.35;;;2.20;;
20593;SDS011;10455;48.732;10.266;2022-10-16T16:02:32;7.78;;;2.70;;
20593;SDS011;10455;48.732;10.266;2022-10-16T16:07:35;4.00;;;2.30;;
20593;SDS011;10455;48.732;10.266;2022-10-16T16:12:38;4.15;;;2.35;;
20593;SDS011;10455;48.732;10.266;2022-10-16T16:17:42;4.50;;;2.40;;
20593;SDS011;10455;48.732;10.266;2022-10-16T16:22:45;3.90;;;2.67;;
20593;SDS011;10455;48.732;10.266;2022-10-16T16:27:47;5.05;;;3.65;;
20593;SDS011;10455;48.732;10.266;2022-10-16T16:32:50;4.90;;;2.83;;
20593;SDS011;10455;48.732;10.266;2022-10-16T16:37:52;4.15;;;2.70;;
20593;SDS011;10455;48.732;10.266;2022-10-16T16:42:54;4.60;;;2.70;;
20593;SDS011;10455;48.732;10.266;2022-10-16T16:47:58;3.47;;;3.17;;
20593;SDS011;10455;48.732;10.266;2022-10-16T16:53:00;4.55;;;2.47;;
20593;SDS011;10455;48.732;10.266;2022-10-16T16:58:02;5.03;;;2.50;;
20593;SDS011;10455;48.732;10.266;2022-10-16T17:03:06;4.90;;;2.60;;
20593;SDS011;10455;48.732;10.266;2022-10-16T17:08:08;2.40;;;2.20;;
20593;SDS011;10455;48.732;10.266;2022-10-16T17:13:10;6.18;;;2.50;;
20593;SDS011;10455;48.732;10.266;2022-10-16T17:18:14;8.10;;;5.07;;
20593;SDS011;10455;48.732;10.266;2022-10-16T17:23:16;19.20;;;10.43;;
20593;SDS011;10455;48.732;10.266;2022-10-16T17:28:19;43.40;;;34.42;;
20593;SDS011;10455;48.732;10.266;2022-10-16T17:33:23;7.43;;;5.10;;
20593;SDS011;10455;48.732;10.266;2022-10-16T17:38:25;7.72;;;5.00;;
20593;SDS011;10455;48.732;10.266;2022-10-16T17:43:27;4.35;;;3.35;;
20593;SDS011;10455;48.732;10.266;2022-10-16T17:48:31;5.70;;;3.22;;
20593;SDS011;10455;48.732;10.266;2022-10-16T17:53:37;9.20;;;4.15;;
20593;SDS011;10455;48.732;10.266;2022-10-16T17:58:40;7.13;;;3.50;;
20593;SDS011;10455;48.732;10.266;2022-10-16T18:03:46;8.90;;;4.35;;
20593;SDS011;10455;48.732;10.266;2022-10-16T18:08:50;8.68;;;4.75;;
20593;SDS011;10455;48.732;10.266;2022-10-16T18:13:52;7.15;;;3.55;;
20593;SDS011;10455;48.732;10.266;2022-10-16T18:18:57;11.55;;;4.22;;
20593;SDS011;10455;48.732;10.266;2022-10-16T18:24:00;10.07;;;4.65;;
20593;SDS011;10455;48.732;10.266;2022-10-16T18:29:02;13.52;;;4.72;;
20593;SDS011;10455;48.732;10.266;2022-10-16T18:34:06;9.45;;;5.60;;
20593;SDS011;10455;48.732;10.266;2022-10-16T18:39:08;10.25;;;6.57;;
20593;SDS011;10455;48.732;10.266;2022-10-16T18:44:11;11.13;;;7.15;;
20593;SDS011;10455;48.732;10.266;2022-10-16T18:49:15;14.80;;;6.55;;
20593;SDS011;10455;48.732;10.266;2022-10-16T18:54:17;10.50;;;6.35;;
20593;SDS011;10455;48.732;10.266;2022-10-16T18:59:19;11.88;;;7.18;;
20593;SDS011;10455;48.732;10.266;2022-10-16T19:04:23;5.30;;;4.40;;
20593;SDS011;10455;48.732;10.266;2022-10-16T19:09:25;4.25;;;3.20;;
20593;SDS011;10455;48.732;10.266;2022-10-16T19:14:27;4.65;;;2.58;;
20593;SDS011;10455;48.732;10.266;2022-10-16T19:19:33;2.40;;;2.20;;
20593;SDS011;10455;48.732;10.266;2022-10-16T19:24:37;6.15;;;3.25;;
20593;SDS011;10455;48.732;10.266;2022-10-16T19:29:39;5.70;;;3.45;;
20593;SDS011;10455;48.732;10.266;2022-10-16T19:34:43;7.40;;;3.67;;
20593;SDS011;10455;48.732;10.266;2022-10-16T19:39:46;10.50;;;6.43;;
20593;SDS011;10455;48.732;10.266;2022-10-16T19:44:50;6.65;;;5.45;;
20593;SDS011;10455;48.732;10.266;2022-10-16T19:49:53;6.78;;;4.40;;
20593;SDS011;10455;48.732;10.266;2022-10-16T19:54:55;11.98;;;4.90;;
20593;SDS011;10455;48.732;10.266;2022-10-16T19:59:57;9.10;;;4.23;;
20593;SDS011;10455;48.732;10.266;2022-10-16T20:05:01;19.30;;;5.80;;
20593;SDS011;10455;48.732;10.266;2022-10-16T20:10:04;9.10;;;6.00;;
20593;SDS011;10455;48.732;10.266;2022-10-16T20:15:07;8.40;;;4.80;;
20593;SDS011;10455;48.732;10.266;2022-10-16T20:20:11;16.97;;;5.23;;
20593;SDS011;10455;48.732;10.266;2022-10-16T20:25:13;8.97;;;5.20;;
20593;SDS011;10455;48.732;10.266;2022-10-16T20:30:16;9.77;;;5.20;;
20593;SDS011;10455;48.732;10.266;2022-10-16T20:35:19;9.60;;;5.00;;
20593;SDS011;10455;48.732;10.266;2022-10-16T20:40:21;13.40;;;5.67;;
20593;SDS011;10455;48.732;10.266;2022-10-16T20:45:23;8.07;;;6.60;;
20593;SDS011;10455;48.732;10.266;2022-10-16T20:50:28;7.80;;;5.80;;
20593;SDS011;10455;48.732;10.266;2022-10-16T20:55:33;7.83;;;5.83;;
20593;SDS011;10455;48.732;10.266;2022-10-16T21:00:36;12.03;;;6.27;;
20593;SDS011;10455;48.732;10.266;2022-10-16T21:05:40;11.30;;;5.20;;
20593;SDS011;10455;48.732;10.266;2022-10-16T21:10:42;17.67;;;5.90;;
20593;SDS011;10455;48.732;10.266;2022-10-16T21:15:44;12.17;;;5.67;;
20593;SDS011;10455;48.732;10.266;2022-10-16T21:20:48;10.37;;;6.30;;
20593;SDS011;10455;48.732;10.266;2022-10-16T21:25:50;10.13;;;6.30;;
20593;SDS011;10455;48.732;10.266;2022-10-16T21:30:52;17.23;;;7.17;;
20593;SDS011;10455;48.732;10.266;2022-10-16T21:35:56;15.90;;;6.30;;
20593;SDS011;10455;48.732;10.266;2022-10-16T21:41:00;8.10;;;6.43;;
20593;SDS011;10455;48.732;10.266;2022-10-16T21:46:11;14.03;;;7.27;;
20593;SDS011;10455;48.732;10.266;2022-10-16T21:51:15;10.33;;;7.47;;
20593;SDS011;10455;48.732;10.266;2022-10-16T21:56:17;8.90;;;6.33;;
20593;SDS011;10455;48.732;10.266;2022-10-16T22:01:21;15.27;;;6.40;;
20593;SDS011;10455;48.732;10.266;2022-10-16T22:06:26;10.10;;;5.67;;
20593;SDS011;10455;48.732;10.266;2022-10-16T22:11:29;8.47;;;6.90;;
20593;SDS011;10455;48.732;10.266;2022-10-16T22:16:35;20.63;;;8.03;;
20593;SDS011;10455;48.732;10.266;2022-10-16T22:21:39;15.20;;;7.03;;
20593;SDS011;10455;48.732;10.266;2022-10-16T22:26:44;7.40;;;6.53;;
20593;SDS011;10455;48.732;10.266;2022-10-16T22:31:49;10.77;;;5.63;;
20593;SDS011;10455;48.732;10.266;2022-10-16T22:36:53;11.93;;;6.70;;
20593;SDS011;10455;48.732;10.266;2022-10-16T22:41:55;10.30;;;5.23;;
20593;SDS011;10455;48.732;10.266;2022-10-16T22:46:57;12.83;;;5.67;;
20593;SDS011;10455;48.732;10.266;2022-10-16T22:52:00;7.77;;;6.17;;
20593;SDS011;10455;48.732;10.266;2022-10-16T22:57:02;15.57;;;9.27;;
20593;SDS011;10455;48.732;10.266;2022-10-16T23:02:04;16.80;;;14.43;;
20593;SDS011;10455;48.732;10.266;2022-10-16T23:07:08;17.00;;;10.83;;
20593;SDS011;10455;48.732;10.266;2022-10-16T23:12:10;12.03;;;9.93;;
20593;SDS011;10455;48.732;10.266;2022-10-16T23:17:12;16.80;;;11.77;;
20593;SDS011;10455;48.732;10.266;2022-10-16T23:22:16;7.20;;;5.87;;
20593;SDS011;10455;48.732;10.266;2022-10-16T23:27:18;8.23;;;6.20;;
20593;SDS011;10455;48.732;10.266;2022-10-16T23:32:20;12.17;;;6.47;;
20593;SDS011;10455;48.732;10.266;2022-10-16T23:37:23;6.50;;;5.10;;
20593;SDS011;10455;48.732;10.266;2022-10-16T23:42:25;9.67;;;5.87;;
20593;SDS011;10455;48.732;10.266;2022-10-16T23:47:27;15.80;;;7.70;;
20593;SDS011;10455;48.732;10.266;2022-10-16T23:52:31;13.43;;;11.90;;
20593;SDS011;10455;48.732;10.266;2022-10-16T23:57:33;16.17;;;10.83;;
